Time;durP1;ratioP1;P1;durP2;ratioP2;P2;SDS_P1;SDS_P2;PMS_P1;PMS_P2;Temp;Humidity;BMP_temperature;BMP_pressure;BME280_temperature;BME280_humidity;BME280_pressure;Samples;Min_cycle;Max_cycle;Signal;HPM_P1;HPM_P2
2023/05/26 00:00:09;;;;;;;9.82;6.80;;;;;;;11.54;70.15;101946.13;7398222;19;20074;-69
2023/05/26 00:02:40;;;;;;;11.50;7.32;;;;;;;11.53;70.02;101941.75;7400967;19;20477;-69
2023/05/26 00:05:10;;;;;;;13.65;7.90;;;;;;;11.51;70.19;101943.53;7401440;19;20022;-69
2023/05/26 00:07:40;;;;;;;14.55;7.03;;;;;;;11.51;70.20;101951.41;7400680;19;20485;-69
2023/05/26 00:10:09;;;;;;;10.55;6.85;;;;;;;11.48;70.23;101937.44;7401211;19;20014;-68
2023/05/26 00:12:38;;;;;;;10.27;6.80;;;;;;;11.45;70.22;101948.81;7398267;19;20082;-69
2023/05/26 00:15:09;;;;;;;10.13;6.50;;;;;;;11.41;70.28;101949.69;7400759;19;20031;-68
2023/05/26 00:17:47;;;;;;;13.73;7.45;;;;;;;11.37;70.33;101943.63;7396716;19;20006;-68
2023/05/26 00:20:15;;;;;;;12.90;7.93;;;;;;;11.36;70.37;101940.97;7400532;19;20018;-68
2023/05/26 00:22:44;;;;;;;12.98;7.38;;;;;;;11.34;70.36;101950.66;7397539;19;20093;-67
2023/05/26 00:25:12;;;;;;;11.10;7.25;;;;;;;11.31;70.48;101951.53;7397416;19;20015;-68
2023/05/26 00:27:41;;;;;;;12.80;7.35;;;;;;;11.29;70.65;101944.53;7400073;19;20407;-67
2023/05/26 00:30:10;;;;;;;14.45;7.65;;;;;;;11.28;70.59;101946.28;7400362;19;20416;-67
2023/05/26 00:32:39;;;;;;;13.02;8.07;;;;;;;11.26;70.79;101948.06;7398346;19;20019;-67
2023/05/26 00:35:11;;;;;;;16.80;7.18;;;;;;;11.24;70.74;101948.03;7399924;19;20010;-69
2023/05/26 00:37:40;;;;;;;13.95;7.20;;;;;;;11.24;70.71;101952.44;7397290;19;20019;-68
2023/05/26 00:40:10;;;;;;;13.38;7.80;;;;;;;11.22;70.88;101952.47;7399885;19;20022;-68
2023/05/26 00:42:39;;;;;;;13.57;7.10;;;;;;;11.22;70.84;101944.56;7397318;19;20022;-67
2023/05/26 00:45:09;;;;;;;12.27;6.82;;;;;;;11.21;71.06;101950.69;7399633;19;20035;-67
2023/05/26 00:47:37;;;;;;;11.38;6.00;;;;;;;11.19;71.01;101952.44;7399245;19;20373;-67
2023/05/26 00:50:06;;;;;;;13.73;6.88;;;;;;;11.18;71.24;101953.31;7399427;19;20011;-69
2023/05/26 00:52:37;;;;;;;12.70;6.47;;;;;;;11.17;71.21;101948.97;7398061;19;20014;-68
2023/05/26 00:55:07;;;;;;;13.70;6.47;;;;;;;11.15;71.30;101948.09;7399087;19;20549;-67
2023/05/26 00:57:36;;;;;;;12.70;6.35;;;;;;;11.11;71.53;101946.38;7399327;19;20018;-68
2023/05/26 01:00:08;;;;;;;13.70;6.72;;;;;;;11.05;71.66;101949.91;7397063;19;20029;-67
2023/05/26 01:02:37;;;;;;;13.50;6.40;;;;;;;11.01;71.74;101949.94;7398713;19;20486;-68
2023/05/26 01:05:08;;;;;;;14.68;6.57;;;;;;;10.96;71.78;101938.59;7398679;19;20486;-68
2023/05/26 01:07:41;;;;;;;16.83;7.75;;;;;;;10.95;72.03;101950.81;7398732;19;20094;-67
2023/05/26 01:10:10;;;;;;;15.15;7.05;;;;;;;10.94;71.81;101945.56;7398622;19;20014;-67
2023/05/26 01:12:43;;;;;;;10.55;5.03;;;;;;;10.92;71.95;101950.84;7397679;19;20102;-67
2023/05/26 01:15:14;;;;;;;11.70;5.97;;;;;;;10.89;72.11;101951.72;7397105;19;20026;-67
2023/05/26 01:17:52;;;;;;;17.75;6.28;;;;;;;10.85;72.23;101949.97;7396602;19;20207;-66
2023/05/26 01:20:27;;;;;;;13.30;5.63;;;;;;;10.81;72.24;101950.88;7396215;19;20066;-67
2023/05/26 01:23:35;;;;;;;12.02;5.82;;;;;;;10.77;72.91;101951.75;7395882;19;20098;-66
2023/05/26 01:26:21;;;;;;;11.50;5.60;;;;;;;10.72;72.29;101948.28;7398787;19;20022;-67
2023/05/26 01:28:55;;;;;;;14.85;6.18;;;;;;;10.72;72.35;101958.78;7395926;19;20082;-67
2023/05/26 01:31:23;;;;;;;15.90;7.20;;;;;;;10.69;72.45;101949.16;7397706;19;20505;-67
2023/05/26 01:33:52;;;;;;;14.98;6.28;;;;;;;10.67;72.44;101950.06;7394077;19;20042;-66
2023/05/26 01:36:20;;;;;;;18.30;6.10;;;;;;;10.65;72.58;101951.78;7398081;19;20089;-67
2023/05/26 01:38:49;;;;;;;14.02;6.43;;;;;;;10.63;72.55;101949.19;7397994;19;20082;-68
2023/05/26 01:41:26;;;;;;;13.20;6.13;;;;;;;10.62;72.70;101952.69;7398045;19;20014;-68
2023/05/26 01:44:02;;;;;;;12.90;6.30;;;;;;;10.59;72.69;101950.94;7397276;19;20014;-67
2023/05/26 01:46:39;;;;;;;14.13;6.07;;;;;;;10.57;72.86;101947.44;7396258;19;20396;-67
2023/05/26 01:49:10;;;;;;;14.43;7.38;;;;;;;10.54;72.77;101946.56;7395895;19;20015;-67
2023/05/26 01:51:41;;;;;;;9.07;6.03;;;;;;;10.52;72.85;101950.97;7397744;19;20025;-68
2023/05/26 01:54:11;;;;;;;14.45;7.55;;;;;;;10.47;72.77;101942.22;7396331;19;20014;-68
2023/05/26 01:56:40;;;;;;;14.98;6.72;;;;;;;10.41;72.82;101949.22;7397275;19;20389;-67
2023/05/26 01:59:12;;;;;;;15.07;7.47;;;;;;;10.38;72.79;101958.84;7396909;19;20489;-69
2023/05/26 02:01:41;;;;;;;11.90;6.53;;;;;;;10.33;72.84;101957.97;7396920;19;20081;-68
2023/05/26 02:04:10;;;;;;;11.43;6.47;;;;;;;10.26;72.86;101959.69;7395598;19;20551;-69
2023/05/26 02:06:39;;;;;;;15.00;7.15;;;;;;;10.19;73.01;101953.59;7396387;19;20368;-67
2023/05/26 02:09:07;;;;;;;14.30;7.45;;;;;;;10.13;73.05;101958.84;7397246;19;20018;-67
2023/05/26 02:11:36;;;;;;;11.73;7.25;;;;;;;10.07;73.19;101959.72;7396231;19;20011;-67
2023/05/26 02:14:05;;;;;;;13.60;7.28;;;;;;;10.00;73.36;101965.81;7395582;19;20082;-67
2023/05/26 02:16:36;;;;;;;15.88;7.38;;;;;;;9.94;73.38;101977.22;7396600;19;20014;-67
2023/05/26 02:19:04;;;;;;;13.57;7.18;;;;;;;9.89;73.39;101972.81;7395374;19;20070;-67
2023/05/26 02:21:34;;;;;;;13.10;7.80;;;;;;;9.83;73.52;101970.19;7394384;19;20561;-67
2023/05/26 02:24:02;;;;;;;14.88;7.90;;;;;;;9.74;73.58;101977.19;7395334;19;20018;-67
2023/05/26 02:26:31;;;;;;;11.65;8.02;;;;;;;9.69;73.62;101983.28;7394296;19;20011;-67
2023/05/26 02:28:59;;;;;;;13.75;7.57;;;;;;;9.63;73.82;101978.91;7395884;19;20357;-67
2023/05/26 02:31:28;;;;;;;17.17;7.82;;;;;;;9.57;73.98;101985.00;7396342;19;20082;-68
2023/05/26 02:34:00;;;;;;;13.15;7.53;;;;;;;9.50;73.98;101983.22;7395791;19;20098;-68
2023/05/26 02:36:28;;;;;;;18.27;7.82;;;;;;;9.44;74.21;101984.09;7397678;19;20011;-67
2023/05/26 02:38:56;;;;;;;13.73;8.00;;;;;;;9.39;74.30;101985.81;7396648;19;20022;-68
2023/05/26 02:41:25;;;;;;;13.75;8.25;;;;;;;9.33;74.40;101984.94;7393933;19;20011;-68
2023/05/26 02:43:53;;;;;;;16.05;8.32;;;;;;;9.25;74.45;101985.78;7394815;19;20026;-67
2023/05/26 02:46:22;;;;;;;11.43;7.32;;;;;;;9.18;74.51;101981.38;7391110;19;20078;-68
2023/05/26 02:48:50;;;;;;;14.02;8.05;;;;;;;9.11;74.59;101985.72;7395253;19;20021;-68
2023/05/26 02:51:21;;;;;;;17.83;8.60;;;;;;;9.02;74.95;101990.91;7395234;19;20089;-68
2023/05/26 02:53:50;;;;;;;16.65;8.45;;;;;;;8.96;75.18;101993.53;7394152;19;20018;-67
2023/05/26 02:56:18;;;;;;;12.50;7.65;;;;;;;8.89;75.21;101995.22;7393347;19;20366;-67
2023/05/26 02:58:46;;;;;;;13.25;8.70;;;;;;;8.84;75.25;101981.22;7393787;19;20077;-68
2023/05/26 03:01:16;;;;;;;17.75;8.73;;;;;;;8.79;75.43;101985.56;7395302;19;20014;-68
2023/05/26 03:03:44;;;;;;;15.25;9.18;;;;;;;8.75;75.60;101981.19;7392916;19;20018;-68
2023/05/26 03:06:13;;;;;;;16.60;8.32;;;;;;;8.72;75.68;101986.38;7395183;19;20074;-68
2023/05/26 03:08:44;;;;;;;16.08;8.82;;;;;;;8.67;75.87;101994.22;7393194;19;20020;-68
2023/05/26 03:11:19;;;;;;;17.38;8.23;;;;;;;8.64;75.90;101987.22;7394661;19;20011;-68
2023/05/26 03:13:48;;;;;;;15.52;8.35;;;;;;;8.62;76.13;101991.56;7392557;19;20506;-67
2023/05/26 03:16:16;;;;;;;14.50;8.45;;;;;;;8.59;76.42;101990.66;7394165;19;20373;-68
2023/05/26 03:18:52;;;;;;;16.83;8.65;;;;;;;8.57;76.51;101993.28;7392895;19;20007;-67
2023/05/26 03:21:20;;;;;;;17.92;8.27;;;;;;;8.55;76.45;101999.38;7394313;19;20506;-68
2023/05/26 03:23:51;;;;;;;16.38;8.65;;;;;;;8.53;76.60;101999.38;7393373;19;20366;-67
2023/05/26 03:26:21;;;;;;;18.30;9.15;;;;;;;8.52;76.76;101997.59;7395165;19;20019;-68
2023/05/26 03:28:50;;;;;;;18.17;8.98;;;;;;;8.50;77.02;101999.31;7392504;19;20022;-67
2023/05/26 03:31:18;;;;;;;14.85;7.82;;;;;;;8.49;77.08;101994.97;7392626;19;20026;-68
2023/05/26 03:33:47;;;;;;;14.38;8.73;;;;;;;8.48;77.16;101995.84;7392963;19;20023;-67
2023/05/26 03:36:16;;;;;;;19.92;8.63;;;;;;;8.47;77.42;101996.72;7394434;19;20093;-68
2023/05/26 03:38:44;;;;;;;18.10;8.50;;;;;;;8.47;77.68;102001.94;7393933;19;20493;-67
2023/05/26 03:41:15;;;;;;;13.63;8.75;;;;;;;8.45;77.78;102004.50;7394178;19;20099;-67
2023/05/26 03:43:44;;;;;;;17.83;9.60;;;;;;;8.44;77.75;102002.75;7392718;19;20024;-68
2023/05/26 03:46:12;;;;;;;15.88;8.20;;;;;;;8.41;77.82;102007.94;7394166;19;20025;-68
2023/05/26 03:48:41;;;;;;;28.20;9.85;;;;;;;8.40;78.59;102016.66;7393740;19;20035;-67
2023/05/26 03:51:09;;;;;;;21.80;9.52;;;;;;;8.37;78.81;102015.78;7392896;19;20026;-68
2023/05/26 03:53:38;;;;;;;19.60;10.07;;;;;;;8.34;79.34;102010.50;7391653;19;20018;-68
2023/05/26 03:56:07;;;;;;;17.90;9.32;;;;;;;8.31;79.65;102013.97;7393139;19;20486;-68
2023/05/26 03:58:38;;;;;;;18.67;9.38;;;;;;;8.30;80.08;102020.97;7397634;19;20062;-68
2023/05/26 04:01:07;;;;;;;20.35;9.57;;;;;;;8.29;80.21;102011.34;7401445;19;20014;-68
2023/05/26 04:03:36;;;;;;;16.25;9.43;;;;;;;8.29;80.38;102016.59;7399831;19;20025;-67
2023/05/26 04:06:05;;;;;;;17.10;8.80;;;;;;;8.29;80.04;102021.81;7397885;19;20078;-68
2023/05/26 04:08:33;;;;;;;19.88;10.90;;;;;;;8.29;81.09;102019.19;7400627;19;20018;-68
2023/05/26 04:11:02;;;;;;;25.60;10.27;;;;;;;8.27;80.91;102026.16;7400706;19;20379;-67
2023/05/26 04:13:30;;;;;;;22.02;9.98;;;;;;;8.26;81.21;102023.53;7398891;19;20028;-67
2023/05/26 04:16:01;;;;;;;20.05;10.02;;;;;;;8.24;81.83;102031.38;7400681;19;20022;-68
2023/05/26 04:18:30;;;;;;;19.98;10.55;;;;;;;8.20;81.91;102023.47;7400087;19;20019;-68
2023/05/26 04:20:58;;;;;;;20.17;9.98;;;;;;;8.18;81.13;102025.22;7399496;19;20482;-68
2023/05/26 04:23:27;;;;;;;23.67;11.13;;;;;;;8.19;81.91;102030.44;7397109;19;20014;-67
2023/05/26 04:25:55;;;;;;;19.70;9.57;;;;;;;8.18;81.40;102031.31;7400180;19;20019;-67
2023/05/26 04:28:24;;;;;;;22.67;10.70;;;;;;;8.18;81.86;102033.91;7400154;19;20019;-67
2023/05/26 04:30:53;;;;;;;23.48;10.52;;;;;;;8.22;81.72;102032.22;7399982;19;20014;-67
2023/05/26 04:33:25;;;;;;;24.40;10.75;;;;;;;8.25;82.01;102030.50;7397917;19;20011;-67
2023/05/26 04:35:54;;;;;;;18.92;9.98;;;;;;;8.29;81.75;102037.50;7398959;19;20041;-67
2023/05/26 04:38:23;;;;;;;19.98;11.20;;;;;;;8.34;81.67;102034.03;7399006;19;20354;-67
2023/05/26 04:40:52;;;;;;;22.13;10.85;;;;;;;8.38;81.76;102041.03;7398724;19;20512;-67
2023/05/26 04:43:23;;;;;;;23.63;10.30;;;;;;;8.43;81.91;102036.75;7396895;19;20083;-67
2023/05/26 04:45:55;;;;;;;22.33;8.75;;;;;;;8.49;81.51;102036.81;7397299;19;20018;-68
2023/05/26 04:48:26;;;;;;;21.73;9.40;;;;;;;8.57;81.83;102042.13;7399186;19;20018;-68
2023/05/26 04:50:55;;;;;;;23.17;8.32;;;;;;;8.64;81.62;102042.19;7397368;19;20034;-67
2023/05/26 04:53:23;;;;;;;22.20;8.20;;;;;;;8.72;81.37;102044.84;7396374;19;20139;-67
2023/05/26 04:55:51;;;;;;;24.00;8.85;;;;;;;8.79;81.51;102046.59;7398573;19;20027;-67
2023/05/26 04:58:20;;;;;;;21.52;7.72;;;;;;;8.86;81.40;102051.88;7398180;19;20031;-67
2023/05/26 05:00:50;;;;;;;22.90;8.75;;;;;;;8.92;80.76;102046.69;7398590;19;20073;-68
2023/05/26 05:03:18;;;;;;;20.48;8.55;;;;;;;8.99;81.01;102050.25;7396252;19;20445;-68
2023/05/26 05:05:52;;;;;;;24.15;8.70;;;;;;;9.03;81.06;102049.38;7395581;19;20019;-67
2023/05/26 05:08:21;;;;;;;18.63;7.85;;;;;;;9.09;80.65;102049.44;7393862;19;20015;-68
2023/05/26 05:10:49;;;;;;;27.30;8.43;;;;;;;9.16;80.40;102048.56;7395135;19;20018;-68
2023/05/26 05:13:18;;;;;;;23.10;8.60;;;;;;;9.24;80.26;102049.50;7397310;19;20454;-68
2023/05/26 05:15:46;;;;;;;22.98;8.02;;;;;;;9.32;79.92;102054.75;7396900;19;20015;-68
2023/05/26 05:18:15;;;;;;;23.50;7.47;;;;;;;9.38;80.14;102046.06;7397726;19;20034;-69
2023/05/26 05:20:43;;;;;;;26.67;8.40;;;;;;;9.44;79.78;102051.34;7394745;19;20474;-68
2023/05/26 05:23:14;;;;;;;20.83;8.30;;;;;;;9.52;79.66;102046.13;7394320;19;20531;-69
2023/05/26 05:25:43;;;;;;;26.27;7.82;;;;;;;9.59;79.60;102050.50;7395075;19;20079;-69
2023/05/26 05:28:12;;;;;;;18.88;6.75;;;;;;;9.65;79.20;102045.28;7397233;19;20035;-67
2023/05/26 05:30:40;;;;;;;21.08;7.65;;;;;;;9.73;78.98;102061.00;7395501;19;20015;-67
2023/05/26 05:33:09;;;;;;;17.95;7.53;;;;;;;9.80;78.65;102054.06;7397111;19;20026;-68
2023/05/26 05:35:37;;;;;;;22.80;7.20;;;;;;;9.88;78.45;102061.09;7397208;19;20018;-67
2023/05/26 05:38:06;;;;;;;18.50;6.68;;;;;;;9.96;77.85;102055.84;7396904;19;20481;-68
2023/05/26 05:40:37;;;;;;;25.38;7.32;;;;;;;10.03;77.55;102068.06;7397076;19;20481;-67
2023/05/26 05:43:06;;;;;;;22.63;7.32;;;;;;;10.11;77.26;102055.88;7394633;19;20478;-67
2023/05/26 05:45:34;;;;;;;20.30;6.30;;;;;;;10.18;76.62;102059.34;7396626;19;20011;-68
2023/05/26 05:48:03;;;;;;;19.95;7.45;;;;;;;10.26;76.47;102067.22;7397293;19;20031;-69
2023/05/26 05:50:32;;;;;;;23.70;7.20;;;;;;;10.33;76.11;102065.50;7397133;19;20478;-67
2023/05/26 05:53:01;;;;;;;26.23;7.03;;;;;;;10.40;75.61;102069.91;7402961;19;20019;-68
2023/05/26 05:55:30;;;;;;;23.95;6.38;;;;;;;10.46;75.50;102066.41;7404633;19;20497;-69
2023/05/26 05:58:01;;;;;;;21.05;6.93;;;;;;;10.51;75.17;102069.91;7399117;19;20383;-67
2023/05/26 06:00:29;;;;;;;17.88;5.57;;;;;;;10.58;74.98;102075.16;7396127;19;20027;-68
2023/05/26 06:02:58;;;;;;;28.00;7.53;;;;;;;10.66;74.86;102079.53;7395713;19;20018;-67
2023/05/26 06:05:26;;;;;;;24.27;8.55;;;;;;;10.72;74.38;102084.78;7396348;19;20018;-67
2023/05/26 06:07:55;;;;;;;20.52;6.75;;;;;;;10.79;74.25;102073.38;7394743;19;20035;-67
2023/05/26 06:10:23;;;;;;;23.33;6.65;;;;;;;10.86;73.94;102069.88;7396154;19;20032;-67
2023/05/26 06:12:52;;;;;;;19.33;6.20;;;;;;;10.94;73.87;102074.25;7396607;19;20018;-68
2023/05/26 06:15:23;;;;;;;20.50;6.35;;;;;;;10.99;73.60;102078.59;7395078;19;20018;-68
2023/05/26 06:17:51;;;;;;;23.65;6.95;;;;;;;11.07;73.45;102074.22;7396013;19;20014;-68
2023/05/26 06:20:20;;;;;;;21.42;6.00;;;;;;;11.17;73.19;102075.06;7394754;19;20024;-68
2023/05/26 06:22:48;;;;;;;16.80;6.05;;;;;;;11.24;73.04;102079.41;7394493;19;20022;-69
2023/05/26 06:25:17;;;;;;;25.15;6.30;;;;;;;11.32;72.60;102081.13;7393759;19;20504;-67
2023/05/26 06:27:45;;;;;;;19.65;5.85;;;;;;;11.38;72.47;102081.13;7394711;19;20041;-68
2023/05/26 06:30:14;;;;;;;21.10;7.03;;;;;;;11.44;72.35;102081.09;7393832;19;20085;-67
2023/05/26 06:32:45;;;;;;;26.45;6.75;;;;;;;11.53;71.97;102090.69;7394897;19;20047;-68
2023/05/26 06:35:14;;;;;;;24.30;5.80;;;;;;;11.61;71.74;102083.63;7393110;19;20368;-67
2023/05/26 06:37:43;;;;;;;18.50;5.93;;;;;;;11.69;71.66;102080.97;7394676;19;20485;-67
2023/05/26 06:40:12;;;;;;;20.38;6.13;;;;;;;11.78;71.30;102085.31;7393740;19;20018;-67
2023/05/26 06:42:41;;;;;;;23.80;6.82;;;;;;;11.86;70.99;102089.66;7394341;19;20039;-67
2023/05/26 06:45:10;;;;;;;19.27;5.13;;;;;;;11.93;70.75;102084.34;7394055;19;20019;-68
2023/05/26 06:47:39;;;;;;;22.90;6.68;;;;;;;11.99;70.47;102079.09;7393034;19;20022;-68
2023/05/26 06:50:11;;;;;;;17.50;5.35;;;;;;;12.05;70.17;102079.91;7394961;19;20367;-68
2023/05/26 06:52:40;;;;;;;23.60;5.18;;;;;;;12.13;70.22;102079.91;7393587;19;20014;-68
2023/05/26 06:55:09;;;;;;;19.42;5.60;;;;;;;12.22;69.60;102078.97;7393498;19;20429;-68
2023/05/26 06:57:37;;;;;;;15.95;6.00;;;;;;;12.30;69.36;102079.75;7394983;19;20025;-68
2023/05/26 07:00:07;;;;;;;20.25;5.13;;;;;;;12.38;68.93;102079.69;7394758;19;20018;-68
2023/05/26 07:02:36;;;;;;;20.17;5.30;;;;;;;12.46;68.54;102077.88;7395144;19;20037;-68
2023/05/26 07:05:04;;;;;;;22.60;6.13;;;;;;;12.53;68.32;102079.56;7394510;19;20498;-68
2023/05/26 07:07:36;;;;;;;22.02;5.28;;;;;;;12.60;68.07;102071.63;7392701;19;20019;-69
2023/05/26 07:10:04;;;;;;;16.05;4.65;;;;;;;12.67;68.03;102068.91;7394403;19;20027;-68
2023/05/26 07:12:33;;;;;;;24.55;6.97;;;;;;;12.75;67.61;102071.50;7392529;19;20027;-67
2023/05/26 07:15:01;;;;;;;18.52;5.90;;;;;;;12.83;67.17;102074.91;7392912;19;20023;-68
2023/05/26 07:17:30;;;;;;;14.70;4.65;;;;;;;12.92;67.03;102083.63;7394830;19;20022;-68
2023/05/26 07:19:58;;;;;;;19.23;4.47;;;;;;;13.00;66.56;102077.38;7392945;19;20027;-68
2023/05/26 07:22:27;;;;;;;16.17;4.65;;;;;;;13.09;65.90;102081.69;7392309;19;20071;-68
2023/05/26 07:24:58;;;;;;;25.55;5.28;;;;;;;13.16;65.79;102078.06;7391941;19;20078;-68
2023/05/26 07:27:26;;;;;;;18.20;4.72;;;;;;;13.24;65.20;102079.75;7393906;19;20499;-69
2023/05/26 07:29:55;;;;;;;17.80;4.22;;;;;;;13.33;64.43;102084.91;7394477;19;20035;-68
2023/05/26 07:32:23;;;;;;;16.02;4.35;;;;;;;13.42;63.60;102083.97;7394774;19;20023;-69
2023/05/26 07:34:52;;;;;;;18.73;4.47;;;;;;;13.48;63.16;102090.06;7398333;19;20431;-68
2023/05/26 07:37:20;;;;;;;22.83;4.10;;;;;;;13.56;61.18;102091.69;7400771;19;20431;-68
2023/05/26 07:39:49;;;;;;;18.40;4.10;;;;;;;13.63;60.85;102090.75;7398346;19;20014;-68
2023/05/26 07:42:20;;;;;;;16.48;3.55;;;;;;;13.69;60.30;102080.97;7401739;19;20018;-68
2023/05/26 07:44:48;;;;;;;22.90;4.00;;;;;;;13.80;59.32;102082.59;7398879;19;20023;-68
2023/05/26 07:47:17;;;;;;;13.93;3.63;;;;;;;13.89;59.00;102086.88;7400804;19;20347;-68
2023/05/26 07:49:45;;;;;;;17.13;3.85;;;;;;;13.98;58.48;102081.47;7398406;19;20032;-67
2023/05/26 07:52:14;;;;;;;14.48;3.22;;;;;;;14.06;58.35;102089.28;7400970;19;20086;-66
2023/05/26 07:54:42;;;;;;;17.15;3.63;;;;;;;14.12;57.59;102095.31;7398194;19;20026;-66
2023/05/26 07:57:11;;;;;;;23.38;4.65;;;;;;;14.20;56.93;102094.34;7398560;19;20018;-68
2023/05/26 07:59:42;;;;;;;17.35;3.90;;;;;;;14.24;56.50;102096.91;7398268;19;20019;-68
2023/05/26 08:02:11;;;;;;;19.80;3.53;;;;;;;14.26;56.70;102096.88;7401299;19;20018;-69
2023/05/26 08:04:39;;;;;;;19.17;3.90;;;;;;;14.31;56.59;102087.13;7398156;19;20078;-69
2023/05/26 08:07:08;;;;;;;15.40;3.28;;;;;;;14.38;56.39;102087.88;7400649;19;20018;-67
2023/05/26 08:09:36;;;;;;;18.30;5.60;;;;;;;14.42;56.12;102087.81;7397780;19;20036;-67
2023/05/26 08:12:06;;;;;;;16.35;3.40;;;;;;;14.47;54.87;102093.91;7400591;19;20086;-68
2023/05/26 08:14:35;;;;;;;14.43;3.45;;;;;;;14.54;55.53;102088.53;7397834;19;20425;-67
2023/05/26 08:17:06;;;;;;;15.10;3.65;;;;;;;14.58;54.84;102098.13;7400460;19;20022;-68
2023/05/26 08:19:35;;;;;;;13.55;3.28;;;;;;;14.61;54.71;102090.16;7398485;19;20513;-68
2023/05/26 08:22:03;;;;;;;21.48;5.05;;;;;;;14.67;54.98;102098.00;7397447;19;20031;-68
2023/05/26 08:24:32;;;;;;;18.02;4.25;;;;;;;14.72;54.93;102093.53;7397433;19;20029;-68
2023/05/26 08:27:00;;;;;;;19.45;4.32;;;;;;;14.78;54.04;102088.09;7397534;19;20018;-68
2023/05/26 08:29:29;;;;;;;19.73;4.50;;;;;;;14.82;54.37;102087.19;7397248;19;20014;-67
2023/05/26 08:31:57;;;;;;;24.83;5.45;;;;;;;14.85;54.38;102090.66;7399914;19;20026;-68
2023/05/26 08:34:28;;;;;;;17.45;3.65;;;;;;;14.88;54.33;102087.97;7397678;19;20018;-68
2023/05/26 08:36:57;;;;;;;17.23;4.32;;;;;;;14.93;54.39;102089.59;7399768;19;20022;-68
2023/05/26 08:39:25;;;;;;;19.25;4.72;;;;;;;15.01;54.14;102081.53;7399006;19;20023;-67
2023/05/26 08:41:58;;;;;;;13.95;4.00;;;;;;;15.08;53.36;102080.53;7399386;19;20031;-68
2023/05/26 08:44:28;;;;;;;15.20;3.65;;;;;;;15.11;52.62;102082.22;7396914;19;20495;-68
2023/05/26 08:46:57;;;;;;;21.88;4.43;;;;;;;15.17;52.55;102086.53;7399713;19;20026;-68
2023/05/26 08:49:29;;;;;;;13.77;3.85;;;;;;;15.15;50.08;102090.09;7398756;19;20474;-68
2023/05/26 08:52:04;;;;;;;14.65;3.78;;;;;;;15.19;50.96;102074.16;7398528;19;20018;-67
2023/05/26 08:54:33;;;;;;;14.57;3.65;;;;;;;15.24;51.50;102074.94;7397069;19;20022;-67
2023/05/26 08:57:05;;;;;;;14.30;3.05;;;;;;;15.30;50.09;102080.97;7399029;19;20032;-67
2023/05/26 08:59:34;;;;;;;16.25;3.50;;;;;;;15.30;50.75;102080.09;7399106;19;20014;-67
2023/05/26 09:02:03;;;;;;;14.38;3.72;;;;;;;15.35;50.62;102078.22;7396177;19;20018;-67
2023/05/26 09:04:34;;;;;;;19.15;4.05;;;;;;;15.39;50.37;102095.78;7396667;19;20082;-74
2023/05/26 09:07:03;;;;;;;14.00;3.50;;;;;;;15.40;49.18;102080.78;7398585;19;20364;-68
2023/05/26 09:09:32;;;;;;;17.70;4.32;;;;;;;15.42;48.49;102079.00;7396383;19;20014;-67
2023/05/26 09:12:07;;;;;;;15.82;3.95;;;;;;;15.49;49.65;102088.50;7398047;19;20028;-68
2023/05/26 09:14:43;;;;;;;17.75;3.70;;;;;;;15.50;48.58;102074.41;7396223;19;20101;-68
2023/05/26 09:17:14;;;;;;;18.70;3.85;;;;;;;15.57;49.37;102077.78;7396034;19;20011;-68
2023/05/26 09:19:45;;;;;;;14.35;3.20;;;;;;;15.61;48.22;102082.13;7395535;19;20027;-68
2023/05/26 09:22:14;;;;;;;13.90;3.70;;;;;;;15.66;49.21;102072.31;7395603;19;20426;-68
2023/05/26 09:24:47;;;;;;;12.05;3.03;;;;;;;15.73;48.65;102075.66;7395724;19;20405;-68
2023/05/26 09:27:20;;;;;;;24.27;4.68;;;;;;;15.78;47.42;102076.44;7395540;19;20014;-68
2023/05/26 09:29:57;;;;;;;15.15;3.58;;;;;;;15.79;46.76;102076.41;7399105;19;20010;-66
2023/05/26 09:32:32;;;;;;;17.02;3.05;;;;;;;15.82;46.63;102066.69;7398271;19;20029;-68
2023/05/26 09:35:04;;;;;;;14.98;4.25;;;;;;;15.88;46.65;102072.69;7395657;19;20019;-68
2023/05/26 09:37:34;;;;;;;13.50;3.55;;;;;;;15.92;47.34;102063.81;7395393;19;20010;-68
2023/05/26 09:40:14;;;;;;;13.25;3.58;;;;;;;15.99;46.66;102061.03;7396991;19;20478;-68
2023/05/26 09:42:50;;;;;;;17.88;4.45;;;;;;;16.02;46.97;102069.75;7396800;19;20074;-67
2023/05/26 09:45:18;;;;;;;22.05;4.07;;;;;;;16.05;46.57;102072.34;7396571;19;20489;-68
2023/05/26 09:47:47;;;;;;;11.07;2.75;;;;;;;16.08;46.98;102069.59;7397034;19;20029;-67
2023/05/26 09:50:18;;;;;;;18.15;4.25;;;;;;;16.12;45.80;102086.28;7396783;19;20015;-68
2023/05/26 09:52:49;;;;;;;18.55;3.30;;;;;;;16.17;46.81;102071.16;7395216;19;20039;-68
2023/05/26 09:55:18;;;;;;;14.85;3.58;;;;;;;16.21;46.59;102064.00;7395058;19;20032;-69
2023/05/26 09:57:48;;;;;;;12.52;3.67;;;;;;;16.22;46.24;102071.91;7395195;19;20022;-67
2023/05/26 10:00:19;;;;;;;13.52;3.25;;;;;;;16.23;46.11;102073.66;7397199;19;20014;-68
2023/05/26 10:02:49;;;;;;;17.98;3.78;;;;;;;16.27;46.44;102077.09;7396823;19;20581;-68
2023/05/26 10:05:23;;;;;;;14.45;3.90;;;;;;;16.27;46.21;102070.03;7394473;19;20014;-69
2023/05/26 10:07:53;;;;;;;17.95;3.83;;;;;;;16.34;46.80;102065.47;7396832;19;20032;-66
2023/05/26 10:10:22;;;;;;;17.15;3.80;;;;;;;16.40;46.76;102065.31;7396619;19;20078;-68
2023/05/26 10:12:51;;;;;;;14.35;3.85;;;;;;;16.44;45.29;102077.56;7393847;19;20024;-68
2023/05/26 10:15:20;;;;;;;13.23;3.13;;;;;;;16.44;44.50;102069.63;7394693;19;20462;-68
2023/05/26 10:17:49;;;;;;;14.45;3.45;;;;;;;16.48;43.62;102067.75;7395917;19;20129;-67
2023/05/26 10:20:21;;;;;;;11.60;3.38;;;;;;;16.53;42.20;102063.22;7394733;19;20031;-67
2023/05/26 10:22:55;;;;;;;16.02;3.92;;;;;;;16.60;43.60;102059.50;7395489;19;20078;-68
2023/05/26 10:25:30;;;;;;;13.25;3.42;;;;;;;16.64;43.34;102062.91;7395690;19;20014;-68
2023/05/26 10:28:04;;;;;;;13.70;3.35;;;;;;;16.69;44.53;102058.38;7395278;19;20078;-68
2023/05/26 10:30:34;;;;;;;16.17;3.97;;;;;;;16.73;44.70;102056.50;7394198;19;20023;-68
2023/05/26 10:33:10;;;;;;;9.88;3.92;;;;;;;16.73;42.92;102061.81;7396023;19;20341;-68
2023/05/26 10:35:56;;;;;;;14.18;3.60;;;;;;;16.75;42.88;102065.31;7395647;19;20019;-68
2023/05/26 10:38:30;;;;;;;10.70;2.85;;;;;;;16.77;41.70;102068.78;7396153;19;20041;-68
2023/05/26 10:40:58;;;;;;;13.02;3.85;;;;;;;16.78;42.99;102049.31;7396148;19;20028;-67
2023/05/26 10:43:29;;;;;;;10.93;2.88;;;;;;;16.81;43.14;102053.66;7393863;19;20031;-69
2023/05/26 10:45:58;;;;;;;18.27;3.45;;;;;;;16.90;43.20;102069.31;7394855;19;20031;-68
2023/05/26 10:48:35;;;;;;;12.73;3.85;;;;;;;16.96;43.18;102057.69;7395550;19;20043;-67
2023/05/26 10:51:11;;;;;;;12.43;3.80;;;;;;;17.02;42.67;102061.06;7394746;19;20032;-69
2023/05/26 10:53:44;;;;;;;11.50;3.00;;;;;;;17.10;43.02;102047.59;7394405;19;20396;-68
2023/05/26 10:56:15;;;;;;;15.80;3.70;;;;;;;17.20;43.23;102051.72;7395281;19;20026;-68
2023/05/26 10:58:48;;;;;;;8.93;2.60;;;;;;;17.25;39.56;102049.81;7396337;19;20014;-68
2023/05/26 11:01:20;;;;;;;9.85;2.78;;;;;;;17.32;41.38;102054.94;7394879;19;20015;-68
2023/05/26 11:03:49;;;;;;;10.07;3.40;;;;;;;17.36;41.15;102041.53;7394293;19;20037;-67
2023/05/26 11:06:35;;;;;;;16.08;3.35;;;;;;;17.38;40.54;102046.78;7392455;19;20018;-68
2023/05/26 11:09:10;;;;;;;11.07;3.35;;;;;;;17.42;41.84;102043.97;7394861;19;20035;-67
2023/05/26 11:11:39;;;;;;;9.63;3.05;;;;;;;17.47;40.71;102056.28;7393724;19;20352;-68
2023/05/26 11:14:09;;;;;;;14.55;3.75;;;;;;;17.53;41.53;102043.69;7393391;19;20018;-68
2023/05/26 11:16:40;;;;;;;13.80;3.20;;;;;;;17.63;41.25;102040.72;7392866;19;20042;-66
2023/05/26 11:19:11;;;;;;;11.23;3.58;;;;;;;17.71;41.21;102042.22;7394239;19;20023;-68
2023/05/26 11:21:49;;;;;;;11.02;3.45;;;;;;;17.86;40.49;102040.03;7390829;19;20473;-68
2023/05/26 11:24:18;;;;;;;14.70;2.97;;;;;;;17.99;40.35;102056.47;7392069;19;20086;-69
2023/05/26 11:26:46;;;;;;;11.02;3.15;;;;;;;18.10;39.55;102040.16;7394033;19;20031;-68
2023/05/26 11:29:15;;;;;;;10.50;2.75;;;;;;;18.17;37.68;102033.75;7392867;19;20007;-67
2023/05/26 11:31:48;;;;;;;9.25;3.25;;;;;;;18.10;34.89;102045.47;7393887;19;20018;-70